2018-04-23 - 15:23:00

SR: 0415 - SS: 1840

RWY: 25


OBSERVATION: n/a

RVR Mean 1 min: (Runway Visual Range)
A: P2000 - B: P2000 - C: P2000
RVR Mean 10 min:
A: P2000 - B: P2000 - C: P2000
WARNING: n/a
W25: 250-280(260-16kt) 11kt-19kt
W07: 230-280(250-11kt) 08kt-19kt
OTHER: n/a

QFE: (tats�chlicher Luftdruck) 1009.1 hPa = 29.79 inHg
QNH:(Luftdruck auf Meeresh�he) 1014.9 hPa = 29.94 inHg
Temperatur: 16.9 �C
Dew point(Taupunkt): 5.9 �C

METAR:  00957 SADL31 EDDG 231520 METAR EDDG 231520Z 26014KT 9999 FEW044 SCT150 BKN230 17/06 Q1014 NOSIG= 
METAR (aus weather.noaa.gov):
2018/04/23 15:20 EDDG 231520Z 26014KT 9999 FEW044 SCT150 BKN230 17/06 Q1014 NOSIG

TAF (aus weather.noaa.gov):
2018/04/23 12:27 TAF EDDG 231100Z 2312/2412 27012KT 9999 FEW040 TEMPO 2312/2316 28015G25KT BECMG 2318/2321 23006KT BECMG 2406/2409 23011KT BKN014